Time;durP1;ratioP1;P1;durP2;ratioP2;P2;SDS_P1;SDS_P2;PMS_P1;PMS_P2;Temp;Humidity;BMP_temperature;BMP_pressure;BME280_temperature;BME280_humidity;BME280_pressure;Samples;Min_cycle;Max_cycle;Signal;HPM_P1;HPM_P2
2023/12/12 00:00:50;;;;;;;0.90;0.90;;;18.40;52.60;;;;;;5149613;27;45682;-69
2023/12/12 00:03:17;;;;;;;2.17;1.13;;;18.40;52.60;;;;;;5149659;27;45287;-69
2023/12/12 00:05:44;;;;;;;1.02;0.90;;;18.40;52.60;;;;;;5149620;27;45425;-68
2023/12/12 00:08:12;;;;;;;1.00;1.00;;;18.30;52.60;;;;;;5149108;27;46382;-68
2023/12/12 00:10:39;;;;;;;1.40;1.15;;;18.30;52.70;;;;;;5149562;27;45409;-69
2023/12/12 00:13:06;;;;;;;1.23;1.00;;;18.30;52.70;;;;;;5148973;27;45293;-68
2023/12/12 00:15:33;;;;;;;0.85;0.85;;;18.30;52.80;;;;;;5149892;27;45381;-68
2023/12/12 00:17:59;;;;;;;0.80;0.77;;;18.30;52.80;;;;;;5149139;27;46647;-68
2023/12/12 00:20:26;;;;;;;0.95;0.95;;;18.30;52.80;;;;;;5149427;27;45405;-68
2023/12/12 00:22:53;;;;;;;0.93;0.88;;;18.30;52.80;;;;;;5149262;27;45267;-68
2023/12/12 00:25:22;;;;;;;0.82;0.80;;;18.30;52.90;;;;;;5149374;27;45277;-68
2023/12/12 00:27:49;;;;;;;1.05;0.95;;;18.20;53.40;;;;;;5148906;27;45466;-68
2023/12/12 00:30:15;;;;;;;1.35;1.00;;;18.20;52.80;;;;;;5149278;27;45300;-68
2023/12/12 00:32:42;;;;;;;0.95;0.95;;;18.20;52.90;;;;;;5149545;27;45381;-68
2023/12/12 00:35:09;;;;;;;0.95;0.80;;;18.20;52.90;;;;;;5149592;27;45498;-68
2023/12/12 00:37:36;;;;;;;1.15;0.90;;;18.20;52.90;;;;;;5149353;27;48773;-68
2023/12/12 00:40:04;;;;;;;2.35;1.20;;;18.10;52.90;;;;;;5149369;27;45427;-68
2023/12/12 00:42:32;;;;;;;1.95;0.93;;;18.10;52.90;;;;;;5149818;27;45324;-68
2023/12/12 00:44:59;;;;;;;0.95;0.80;;;18.10;53.00;;;;;;5149115;27;45412;-68
2023/12/12 00:47:26;;;;;;;0.70;0.70;;;18.10;52.90;;;;;;5148706;27;45456;-68
2023/12/12 00:49:53;;;;;;;0.85;0.85;;;18.10;53.00;;;;;;5148751;27;45339;-68
2023/12/12 00:52:19;;;;;;;1.95;0.80;;;18.00;52.90;;;;;;5148841;27;45252;-68
2023/12/12 00:54:46;;;;;;;0.90;0.90;;;18.10;53.10;;;;;;5148727;27;45407;-68
2023/12/12 00:57:13;;;;;;;0.90;0.70;;;18.00;53.00;;;;;;5147893;27;46258;-68
2023/12/12 00:59:41;;;;;;;0.70;0.70;;;18.00;53.00;;;;;;5148216;27;45239;-68
2023/12/12 01:02:08;;;;;;;1.20;1.10;;;18.00;53.00;;;;;;5148788;27;45328;-68
2023/12/12 01:04:35;;;;;;;0.88;0.77;;;18.00;53.00;;;;;;5148649;27;45251;-68
2023/12/12 01:07:02;;;;;;;1.02;0.80;;;18.00;53.10;;;;;;5148360;27;46938;-68
2023/12/12 01:09:29;;;;;;;0.80;0.80;;;18.00;53.10;;;;;;5148626;27;45380;-68
2023/12/12 01:11:55;;;;;;;1.48;0.90;;;18.00;53.10;;;;;;5148727;27;45373;-68
2023/12/12 01:14:22;;;;;;;0.70;0.70;;;17.90;53.10;;;;;;5148744;27;45360;-69
2023/12/12 01:16:50;;;;;;;1.10;1.00;;;17.90;53.10;;;;;;5148646;27;46384;-68
2023/12/12 01:19:17;;;;;;;0.95;0.90;;;17.90;53.10;;;;;;5148636;27;45286;-68
2023/12/12 01:21:44;;;;;;;1.10;1.00;;;17.90;53.10;;;;;;5149022;27;45308;-68
2023/12/12 01:24:11;;;;;;;1.00;1.00;;;17.90;53.10;;;;;;5148848;27;45296;-68
2023/12/12 01:26:37;;;;;;;0.60;0.60;;;17.90;53.10;;;;;;5148485;27;46724;-68
2023/12/12 01:29:04;;;;;;;1.42;0.90;;;17.90;53.10;;;;;;5148296;27;45344;-68
2023/12/12 01:31:31;;;;;;;0.70;0.70;;;17.90;53.70;;;;;;5148535;27;45321;-68
2023/12/12 01:33:59;;;;;;;0.70;0.70;;;17.90;53.10;;;;;;5148742;27;45390;-68
2023/12/12 01:36:26;;;;;;;0.60;0.60;;;17.90;53.10;;;;;;5147709;27;46399;-68
2023/12/12 01:38:53;;;;;;;1.05;0.80;;;17.90;53.20;;;;;;5147452;27;45415;-68
2023/12/12 01:41:20;;;;;;;0.77;0.77;;;17.80;53.10;;;;;;5148168;27;45184;-68
2023/12/12 01:43:47;;;;;;;0.70;0.70;;;17.80;53.10;;;;;;5148460;27;45367;-68
2023/12/12 01:46:15;;;;;;;1.23;0.70;;;17.80;53.20;;;;;;5147778;27;45317;-68
2023/12/12 01:48:42;;;;;;;0.85;0.82;;;17.80;53.20;;;;;;5151906;27;45336;-68
2023/12/12 01:51:10;;;;;;;0.77;0.77;;;17.80;53.20;;;;;;5151953;27;45334;-68
2023/12/12 01:53:40;;;;;;;0.63;0.63;;;17.80;53.20;;;;;;5152077;27;45365;-68
2023/12/12 01:56:07;;;;;;;1.08;0.80;;;17.80;53.20;;;;;;5151554;27;45346;-68
2023/12/12 01:58:34;;;;;;;0.70;0.60;;;17.80;53.20;;;;;;5151477;27;45375;-68
2023/12/12 02:01:01;;;;;;;0.60;0.55;;;17.80;53.20;;;;;;5151539;27;45185;-69
2023/12/12 02:03:28;;;;;;;1.60;0.60;;;17.70;53.20;;;;;;5151760;27;45530;-68
2023/12/12 02:05:57;;;;;;;2.40;0.80;;;17.70;53.20;;;;;;5151597;27;45524;-68
2023/12/12 02:08:26;;;;;;;2.10;0.70;;;17.70;53.20;;;;;;5148680;27;45420;-69
2023/12/12 02:10:53;;;;;;;0.57;0.57;;;17.70;53.20;;;;;;5151473;27;45266;-68
2023/12/12 02:13:20;;;;;;;0.50;0.50;;;17.70;53.20;;;;;;5151559;27;45405;-68
2023/12/12 02:15:47;;;;;;;0.80;0.80;;;17.70;53.20;;;;;;5151230;27;46017;-68
2023/12/12 02:18:14;;;;;;;0.95;0.43;;;17.70;53.20;;;;;;5151199;27;45412;-68
2023/12/12 02:20:41;;;;;;;0.70;0.70;;;17.70;53.20;;;;;;5151334;27;45296;-68
2023/12/12 02:23:09;;;;;;;0.80;0.80;;;17.70;53.30;;;;;;5151157;27;45184;-68
2023/12/12 02:25:36;;;;;;;1.02;0.80;;;17.70;53.30;;;;;;5150054;27;45560;-68
2023/12/12 02:28:03;;;;;;;0.63;0.63;;;17.60;53.30;;;;;;5151030;27;45444;-68
2023/12/12 02:30:30;;;;;;;1.42;0.50;;;17.60;53.30;;;;;;5151378;27;45229;-68
2023/12/12 02:32:57;;;;;;;0.73;0.60;;;17.60;53.30;;;;;;5151233;27;45420;-69
2023/12/12 02:35:24;;;;;;;0.50;0.50;;;17.60;53.20;;;;;;5150651;27;45597;-69
2023/12/12 02:37:51;;;;;;;0.50;0.50;;;17.60;53.90;;;;;;5150601;27;45379;-68
2023/12/12 02:40:19;;;;;;;0.47;0.47;;;17.60;53.20;;;;;;5151119;27;45429;-68
2023/12/12 02:42:46;;;;;;;0.77;0.70;;;17.60;53.30;;;;;;5151201;27;45246;-69
2023/12/12 02:45:13;;;;;;;0.50;0.50;;;17.60;53.30;;;;;;5150556;27;46618;-68
2023/12/12 02:47:40;;;;;;;0.60;0.60;;;17.60;53.20;;;;;;5150830;27;45330;-68
2023/12/12 02:50:08;;;;;;;0.50;0.50;;;17.60;53.30;;;;;;5151074;27;45423;-68
2023/12/12 02:52:35;;;;;;;0.60;0.60;;;17.60;53.30;;;;;;5151159;27;45442;-68
2023/12/12 02:55:02;;;;;;;0.60;0.60;;;17.60;53.30;;;;;;5150427;27;45393;-69
2023/12/12 02:57:30;;;;;;;0.60;0.60;;;17.60;53.30;;;;;;5150356;27;45270;-69
2023/12/12 02:59:57;;;;;;;1.10;0.70;;;17.60;53.20;;;;;;5150712;27;45374;-69
2023/12/12 03:02:24;;;;;;;0.40;0.40;;;17.60;53.20;;;;;;5151213;27;45289;-68
2023/12/12 03:04:51;;;;;;;0.57;0.57;;;17.60;53.30;;;;;;5149406;27;46703;-69
2023/12/12 03:07:18;;;;;;;1.08;0.68;;;17.50;53.30;;;;;;5150292;27;45231;-69
2023/12/12 03:09:44;;;;;;;0.50;0.50;;;17.50;53.30;;;;;;5150587;27;45331;-69
2023/12/12 03:12:11;;;;;;;1.25;0.70;;;17.50;53.20;;;;;;5150655;27;45686;-68
2023/12/12 03:14:39;;;;;;;0.50;0.50;;;17.50;53.30;;;;;;5150039;27;46273;-68
2023/12/12 03:17:06;;;;;;;0.40;0.40;;;17.50;53.30;;;;;;5150185;27;45404;-68
2023/12/12 03:19:33;;;;;;;2.33;0.50;;;17.50;53.20;;;;;;5150437;27;45190;-69
2023/12/12 03:22:00;;;;;;;0.73;0.73;;;17.50;53.30;;;;;;5150509;27;45469;-68
2023/12/12 03:24:27;;;;;;;0.50;0.50;;;17.40;53.40;;;;;;5149791;27;45378;-68
2023/12/12 03:26:54;;;;;;;0.40;0.40;;;17.50;53.30;;;;;;5147422;27;45445;-68
2023/12/12 03:29:21;;;;;;;0.73;0.60;;;17.40;53.30;;;;;;5150239;27;45299;-68
2023/12/12 03:31:49;;;;;;;2.13;0.70;;;17.40;53.30;;;;;;5150525;27;45313;-68
2023/12/12 03:34:16;;;;;;;1.10;0.60;;;17.40;53.30;;;;;;5149794;27;46383;-68
2023/12/12 03:36:43;;;;;;;0.70;0.70;;;17.40;53.30;;;;;;5149621;27;45321;-68
2023/12/12 03:39:10;;;;;;;0.52;0.50;;;17.40;53.30;;;;;;5150102;27;45210;-69
2023/12/12 03:41:37;;;;;;;0.80;0.60;;;17.40;53.30;;;;;;5150409;27;45248;-68
2023/12/12 03:44:04;;;;;;;0.77;0.55;;;17.40;53.40;;;;;;5149645;27;45308;-68
2023/12/12 03:46:31;;;;;;;1.60;0.50;;;17.40;53.40;;;;;;5149688;27;45373;-68
2023/12/12 03:48:59;;;;;;;0.35;0.35;;;17.40;53.30;;;;;;5149740;27;45412;-66
2023/12/12 03:51:26;;;;;;;0.73;0.60;;;17.40;53.40;;;;;;5149314;27;45267;-68
2023/12/12 03:53:53;;;;;;;0.63;0.60;;;17.40;53.40;;;;;;5149530;27;45228;-68
2023/12/12 03:56:20;;;;;;;0.80;0.43;;;17.40;53.40;;;;;;5149660;27;45367;-68
2023/12/12 03:58:47;;;;;;;0.70;0.50;;;17.30;53.40;;;;;;5150002;27;45271;-68
2023/12/12 04:01:14;;;;;;;0.60;0.60;;;17.30;53.40;;;;;;5150106;27;45578;-66
2023/12/12 04:03:41;;;;;;;0.65;0.60;;;17.30;53.50;;;;;;5149373;27;45312;-69
2023/12/12 04:06:10;;;;;;;2.17;0.50;;;17.30;53.50;;;;;;5149392;27;45260;-68
2023/12/12 04:08:37;;;;;;;0.50;0.50;;;17.30;53.60;;;;;;5149788;27;45427;-68
2023/12/12 04:11:04;;;;;;;0.50;0.50;;;17.30;53.60;;;;;;5149094;27;45489;-68
2023/12/12 04:13:31;;;;;;;0.45;0.45;;;17.40;53.50;;;;;;5149354;27;47294;-68
2023/12/12 04:15:58;;;;;;;0.40;0.40;;;17.40;53.30;;;;;;5149463;27;45267;-68
2023/12/12 04:18:24;;;;;;;0.70;0.70;;;17.50;53.20;;;;;;5149406;27;45383;-68
2023/12/12 04:20:51;;;;;;;0.85;0.50;;;17.60;53.10;;;;;;5149477;27;45307;-68
2023/12/12 04:23:20;;;;;;;0.50;0.50;;;17.70;52.90;;;;;;5149432;27;46767;-68
2023/12/12 04:25:46;;;;;;;0.63;0.63;;;17.70;53.30;;;;;;5148855;27;45309;-68
2023/12/12 04:28:13;;;;;;;0.38;0.30;;;17.90;52.50;;;;;;5149363;27;45236;-68
2023/12/12 04:30:40;;;;;;;0.40;0.40;;;18.00;52.30;;;;;;5149533;27;45371;-68
2023/12/12 04:33:07;;;;;;;0.70;0.70;;;18.00;52.00;;;;;;5148387;27;45460;-68
2023/12/12 04:35:34;;;;;;;0.82;0.60;;;18.10;51.90;;;;;;5148727;27;45398;-68
2023/12/12 04:38:01;;;;;;;0.43;0.40;;;18.20;51.70;;;;;;5148896;27;45418;-68
2023/12/12 04:40:29;;;;;;;0.43;0.43;;;18.30;51.60;;;;;;5149211;27;45302;-68
2023/12/12 04:42:56;;;;;;;0.40;0.40;;;18.40;51.40;;;;;;5148897;27;47619;-68
2023/12/12 04:45:23;;;;;;;0.55;0.55;;;18.50;51.20;;;;;;5148827;27;45334;-68
2023/12/12 04:47:50;;;;;;;0.40;0.40;;;18.50;51.10;;;;;;5149024;27;45372;-68
2023/12/12 04:50:17;;;;;;;0.52;0.50;;;18.60;50.90;;;;;;5149206;27;45314;-68
2023/12/12 04:52:43;;;;;;;0.30;0.30;;;18.70;50.80;;;;;;5148831;27;46302;-68
2023/12/12 04:55:11;;;;;;;0.40;0.40;;;18.70;51.20;;;;;;5148883;27;45679;-69
2023/12/12 04:57:39;;;;;;;0.50;0.50;;;18.80;50.60;;;;;;5149076;27;45460;-68
2023/12/12 05:00:13;;;;;;;0.32;0.32;;;18.90;50.40;;;;;;5148910;27;45468;-68
2023/12/12 05:02:41;;;;;;;0.40;0.40;;;18.90;50.30;;;;;;5148322;27;45375;-68
2023/12/12 05:05:08;;;;;;;0.35;0.35;;;19.00;50.20;;;;;;5148304;27;45330;-68
2023/12/12 05:07:35;;;;;;;0.30;0.30;;;19.10;50.10;;;;;;5148871;27;45320;-69
2023/12/12 05:10:01;;;;;;;0.40;0.40;;;19.10;50.10;;;;;;5149360;27;45357;-68
2023/12/12 05:12:28;;;;;;;0.50;0.50;;;19.10;50.00;;;;;;5148548;27;46380;-68
2023/12/12 05:14:56;;;;;;;1.10;0.63;;;19.20;49.90;;;;;;5148535;27;45369;-68
2023/12/12 05:17:23;;;;;;;0.50;0.40;;;19.20;49.80;;;;;;5148685;27;45262;-68
2023/12/12 05:19:50;;;;;;;0.52;0.43;;;19.30;49.80;;;;;;5147983;27;45376;-68
2023/12/12 05:22:17;;;;;;;0.50;0.50;;;19.30;49.70;;;;;;5149969;27;45337;-68
2023/12/12 05:24:44;;;;;;;0.25;0.25;;;19.30;49.60;;;;;;5151934;27;45433;-68
2023/12/12 05:27:11;;;;;;;0.40;0.40;;;19.30;49.60;;;;;;5152300;27;45314;-68
2023/12/12 05:29:37;;;;;;;0.90;0.50;;;19.40;49.50;;;;;;5152376;27;45217;-68
2023/12/12 05:32:07;;;;;;;0.75;0.55;;;19.40;49.50;;;;;;5152088;27;46480;-68
2023/12/12 05:34:34;;;;;;;0.50;0.50;;;19.50;49.40;;;;;;5151857;27;45459;-69
2023/12/12 05:37:01;;;;;;;0.40;0.40;;;19.50;49.40;;;;;;5151675;27;45539;-68
2023/12/12 05:39:28;;;;;;;0.88;0.30;;;19.50;49.30;;;;;;5152251;27;45247;-68
2023/12/12 05:41:55;;;;;;;0.68;0.40;;;19.50;49.30;;;;;;5151640;27;46380;-68
2023/12/12 05:44:22;;;;;;;0.40;0.40;;;19.60;49.30;;;;;;5151757;27;45487;-68
2023/12/12 05:46:48;;;;;;;0.32;0.32;;;19.60;49.30;;;;;;5151753;27;45380;-69
2023/12/12 05:49:17;;;;;;;0.30;0.30;;;19.60;49.20;;;;;;5152023;27;45394;-69
2023/12/12 05:51:43;;;;;;;0.40;0.40;;;19.60;49.20;;;;;;5151690;27;46908;-68
2023/12/12 05:54:11;;;;;;;0.50;0.40;;;19.60;49.20;;;;;;5151708;27;45328;-68
2023/12/12 05:56:38;;;;;;;0.57;0.40;;;19.60;49.10;;;;;;5152160;27;45421;-68
2023/12/12 05:59:05;;;;;;;1.10;0.45;;;19.70;49.10;;;;;;5151816;27;45376;-68
2023/12/12 06:01:32;;;;;;;0.22;0.22;;;19.70;49.10;;;;;;5150750;27;45254;-68
2023/12/12 06:03:59;;;;;;;0.40;0.40;;;19.70;49.10;;;;;;5151577;27;45230;-68
2023/12/12 06:06:28;;;;;;;0.30;0.30;;;19.70;49.00;;;;;;5151459;27;45414;-68
2023/12/12 06:08:54;;;;;;;0.40;0.40;;;19.80;49.00;;;;;;5151665;27;45472;-68
2023/12/12 06:11:23;;;;;;;0.50;0.50;;;19.80;49.00;;;;;;5151887;27;46305;-68
2023/12/12 06:13:49;;;;;;;0.45;0.45;;;19.80;49.00;;;;;;5152230;27;45376;-67
2023/12/12 06:16:17;;;;;;;0.68;0.20;;;19.80;49.00;;;;;;5169309;27;45467;-68
2023/12/12 06:18:44;;;;;;;0.40;0.40;;;19.80;48.90;;;;;;5163573;27;45493;-68
2023/12/12 06:21:10;;;;;;;0.20;0.20;;;19.80;48.90;;;;;;5148971;27;46280;-69
2023/12/12 06:23:39;;;;;;;0.20;0.20;;;19.90;48.80;;;;;;5155229;27;45314;-68
2023/12/12 06:26:06;;;;;;;0.30;0.30;;;19.90;49.40;;;;;;5166654;27;45686;-68
2023/12/12 06:28:33;;;;;;;0.17;0.17;;;19.90;48.80;;;;;;5167880;27;45399;-68
2023/12/12 06:30:59;;;;;;;0.28;0.28;;;19.90;48.80;;;;;;5169210;27;46324;-68
2023/12/12 06:33:28;;;;;;;0.28;0.28;;;19.90;48.80;;;;;;5171066;27;45255;-68
2023/12/12 06:35:55;;;;;;;0.40;0.40;;;19.90;48.80;;;;;;5169148;27;45481;-68
2023/12/12 06:38:22;;;;;;;0.55;0.30;;;19.90;48.80;;;;;;5171279;27;45371;-68
2023/12/12 06:40:50;;;;;;;0.30;0.30;;;20.00;48.80;;;;;;5171397;27;46998;-67
2023/12/12 06:43:17;;;;;;;0.68;0.35;;;20.00;48.80;;;;;;5171306;27;45309;-68
2023/12/12 06:45:44;;;;;;;0.40;0.40;;;20.00;48.80;;;;;;5171137;27;45364;-67
2023/12/12 06:48:12;;;;;;;0.30;0.30;;;20.00;48.80;;;;;;5171768;27;45341;-68
2023/12/12 06:50:39;;;;;;;0.20;0.20;;;20.00;48.80;;;;;;5171200;27;46647;-68
2023/12/12 06:53:05;;;;;;;0.30;0.30;;;20.00;48.80;;;;;;5169466;27;45555;-68
2023/12/12 06:55:32;;;;;;;0.20;0.20;;;20.00;48.90;;;;;;5154035;27;45457;-68
2023/12/12 06:58:01;;;;;;;0.20;0.20;;;20.00;48.90;;;;;;5169787;27;45305;-68
2023/12/12 07:00:28;;;;;;;0.40;0.28;;;19.90;48.90;;;;;;5159719;27;46766;-68
2023/12/12 07:02:55;;;;;;;0.38;0.38;;;19.90;48.90;;;;;;5155838;27;46708;-68
2023/12/12 07:05:22;;;;;;;0.30;0.20;;;19.90;48.90;;;;;;5167782;27;45386;-68
2023/12/12 07:07:49;;;;;;;0.70;0.40;;;19.90;49.00;;;;;;5160705;27;47944;-68
2023/12/12 07:10:16;;;;;;;0.38;0.35;;;19.90;49.10;;;;;;5164065;27;46442;-68
2023/12/12 07:12:44;;;;;;;0.50;0.50;;;19.90;49.10;;;;;;5169919;27;45321;-68
2023/12/12 07:15:13;;;;;;;0.40;0.40;;;19.80;49.10;;;;;;5168530;27;45390;-68
2023/12/12 07:17:40;;;;;;;0.38;0.38;;;19.80;49.20;;;;;;5170511;27;45288;-68
2023/12/12 07:20:11;;;;;;;0.40;0.40;;;19.80;49.30;;;;;;5167699;27;46672;-68
2023/12/12 07:22:38;;;;;;;0.25;0.25;;;19.80;49.30;;;;;;5149825;27;45300;-67
2023/12/12 07:25:05;;;;;;;1.30;0.30;;;19.80;49.40;;;;;;5150791;27;46552;-68
2023/12/12 07:27:32;;;;;;;0.28;0.28;;;19.80;49.50;;;;;;5166216;27;45407;-68
2023/12/12 07:29:59;;;;;;;0.25;0.25;;;19.80;49.50;;;;;;5168377;27;46741;-67
2023/12/12 07:32:27;;;;;;;0.20;0.20;;;19.70;49.60;;;;;;5161907;27;45419;-67
2023/12/12 07:34:54;;;;;;;0.30;0.30;;;19.70;49.70;;;;;;5169954;27;45292;-68
2023/12/12 07:37:21;;;;;;;2.40;0.40;;;19.70;50.70;;;;;;5170789;27;45402;-67
2023/12/12 07:39:48;;;;;;;0.40;0.40;;;19.70;50.20;;;;;;5170576;27;45356;-68
2023/12/12 07:42:15;;;;;;;1.42;0.30;;;19.70;51.30;;;;;;5170281;27;45402;-68
2023/12/12 07:44:42;;;;;;;1.42;0.60;;;19.60;50.80;;;;;;5161199;27;45306;-68
2023/12/12 07:47:09;;;;;;;1.27;0.50;;;19.60;50.90;;;;;;5152013;27;45397;-67
2023/12/12 07:49:37;;;;;;;0.50;0.40;;;19.60;50.90;;;;;;5166572;27;45193;-68
2023/12/12 07:52:05;;;;;;;0.75;0.68;;;19.60;51.60;;;;;;5170319;27;45383;-67
2023/12/12 07:54:32;;;;;;;1.80;0.68;;;19.50;51.00;;;;;;5170319;27;45286;-67
2023/12/12 07:56:59;;;;;;;1.75;0.43;;;19.50;51.10;;;;;;5170541;27;45255;-68
2023/12/12 07:59:26;;;;;;;0.88;0.55;;;19.50;51.10;;;;;;5169821;27;47700;-67
2023/12/12 08:01:53;;;;;;;0.88;0.60;;;19.50;51.10;;;;;;5163140;27;45487;-69
2023/12/12 08:04:19;;;;;;;3.20;0.40;;;19.50;51.10;;;;;;5165263;27;45343;-67
2023/12/12 08:06:48;;;;;;;0.50;0.50;;;19.50;51.20;;;;;;5156938;27;45387;-68
2023/12/12 08:09:15;;;;;;;0.50;0.50;;;19.50;51.20;;;;;;5160578;27;45354;-66
2023/12/12 08:11:42;;;;;;;1.92;0.60;;;19.50;51.30;;;;;;5160201;27;45350;-67
2023/12/12 08:14:09;;;;;;;2.10;0.43;;;19.40;51.20;;;;;;5155229;27;45343;-67
2023/12/12 08:16:35;;;;;;;1.23;0.40;;;19.50;51.20;;;;;;5159637;27;45590;-66
2023/12/12 08:19:02;;;;;;;0.90;0.60;;;19.40;51.10;;;;;;5167514;27;46373;-67
2023/12/12 08:21:29;;;;;;;0.95;0.28;;;19.40;51.10;;;;;;5155551;27;45431;-67
2023/12/12 08:23:57;;;;;;;0.73;0.50;;;19.40;51.20;;;;;;5167163;27;45531;-68
2023/12/12 08:26:24;;;;;;;0.65;0.50;;;19.40;51.20;;;;;;5163268;27;45467;-68
2023/12/12 08:28:51;;;;;;;0.40;0.40;;;19.40;51.30;;;;;;5154767;27;45661;-67
2023/12/12 08:31:18;;;;;;;1.05;0.43;;;19.40;51.30;;;;;;5156143;27;45396;-68
2023/12/12 08:33:44;;;;;;;0.95;0.40;;;19.40;51.30;;;;;;5157431;27;45482;-67
2023/12/12 08:36:11;;;;;;;2.05;0.32;;;19.40;51.40;;;;;;5167506;27;45267;-67
2023/12/12 08:38:38;;;;;;;1.45;0.50;;;19.40;51.50;;;;;;5167312;27;46503;-67
2023/12/12 08:41:08;;;;;;;4.22;0.57;;;19.40;51.40;;;;;;5165665;27;45387;-66
2023/12/12 08:43:35;;;;;;;1.33;0.40;;;19.50;51.30;;;;;;5158414;27;45458;-67
2023/12/12 08:46:02;;;;;;;2.88;0.52;;;19.50;51.30;;;;;;5146641;27;45624;-66
2023/12/12 08:48:29;;;;;;;1.40;0.50;;;19.50;51.30;;;;;;5147276;27;47340;-66
2023/12/12 08:50:56;;;;;;;2.05;0.65;;;19.50;51.80;;;;;;5146506;27;45363;-66
2023/12/12 08:53:26;;;;;;;0.70;0.47;;;19.50;51.30;;;;;;5153873;27;46341;-66
2023/12/12 08:55:54;;;;;;;1.40;0.38;;;19.50;51.30;;;;;;5152270;27;45412;-66
2023/12/12 08:58:23;;;;;;;0.60;0.47;;;19.50;51.30;;;;;;5150252;27;46394;-65
2023/12/12 09:00:50;;;;;;;0.55;0.40;;;19.50;51.50;;;;;;5152595;27;45717;-66
2023/12/12 09:03:17;;;;;;;3.42;0.60;;;19.50;51.50;;;;;;5152489;27;45408;-65
2023/12/12 09:05:44;;;;;;;0.60;0.30;;;19.40;51.40;;;;;;5152400;27;45453;-66
2023/12/12 09:08:11;;;;;;;1.20;0.30;;;19.50;51.60;;;;;;5146198;27;46387;-66
2023/12/12 09:10:37;;;;;;;1.02;0.70;;;19.50;51.70;;;;;;5151188;27;45511;-66
2023/12/12 09:13:04;;;;;;;2.28;0.60;;;19.40;51.50;;;;;;5148749;27;45708;-65
2023/12/12 09:15:33;;;;;;;0.63;0.60;;;19.40;51.60;;;;;;5151897;27;45438;-67
2023/12/12 09:18:00;;;;;;;1.60;0.57;;;19.40;51.60;;;;;;5151909;27;46384;-67
2023/12/12 09:20:27;;;;;;;0.30;0.30;;;19.40;51.60;;;;;;5145598;27;45455;-67
2023/12/12 09:22:54;;;;;;;0.50;0.50;;;19.40;51.60;;;;;;5151715;27;45419;-68
2023/12/12 09:25:20;;;;;;;0.65;0.40;;;19.50;51.70;;;;;;5145930;27;45489;-68
2023/12/12 09:27:47;;;;;;;0.52;0.38;;;19.50;51.70;;;;;;5150772;27;46379;-67
2023/12/12 09:30:14;;;;;;;0.40;0.40;;;19.50;51.80;;;;;;5152913;27;45650;-68
2023/12/12 09:32:42;;;;;;;0.43;0.43;;;19.50;51.80;;;;;;5153363;27;45507;-68
2023/12/12 09:35:10;;;;;;;1.42;0.60;;;19.50;51.80;;;;;;5151752;27;45420;-69
2023/12/12 09:37:37;;;;;;;0.30;0.30;;;19.50;52.40;;;;;;5154205;27;45348;-68
2023/12/12 09:40:05;;;;;;;2.72;0.50;;;19.50;52.40;;;;;;5153666;27;45372;-68
2023/12/12 09:42:34;;;;;;;1.00;0.50;;;19.50;51.70;;;;;;5149305;27;45586;-67
2023/12/12 09:45:02;;;;;;;0.65;0.43;;;19.50;51.70;;;;;;5157941;27;45419;-69
2023/12/12 09:47:29;;;;;;;0.85;0.43;;;19.50;51.90;;;;;;5148735;27;46856;-69
2023/12/12 09:49:58;;;;;;;2.03;0.52;;;19.50;51.70;;;;;;5152871;27;45410;-70
2023/12/12 09:52:25;;;;;;;0.20;0.20;;;19.50;51.70;;;;;;5149121;27;45806;-68
2023/12/12 09:54:52;;;;;;;0.90;0.60;;;19.50;51.80;;;;;;5158564;27;45399;-67
2023/12/12 09:57:19;;;;;;;2.05;0.70;;;19.50;51.90;;;;;;5156350;27;45494;-69
2023/12/12 09:59:46;;;;;;;0.30;0.30;;;19.50;52.00;;;;;;5155827;27;45392;-68
2023/12/12 10:02:16;;;;;;;1.00;0.50;;;19.50;51.80;;;;;;5159937;27;45461;-68
2023/12/12 10:04:43;;;;;;;0.30;0.30;;;19.50;51.80;;;;;;5157235;27;45468;-67
2023/12/12 10:07:12;;;;;;;2.88;0.50;;;19.50;51.90;;;;;;5146858;27;45565;-68
2023/12/12 10:09:39;;;;;;;1.42;0.45;;;19.50;51.80;;;;;;5156581;27;45454;-67
2023/12/12 10:12:06;;;;;;;1.00;0.52;;;19.50;51.80;;;;;;5154499;27;45428;-69
2023/12/12 10:14:36;;;;;;;0.43;0.40;;;19.50;51.70;;;;;;5156857;27;45682;-67
2023/12/12 10:17:05;;;;;;;0.57;0.52;;;19.50;51.80;;;;;;5152792;27;47571;-67
2023/12/12 10:19:32;;;;;;;0.40;0.40;;;19.50;51.70;;;;;;5154488;27;45335;-67
2023/12/12 10:22:01;;;;;;;0.85;0.60;;;19.50;51.80;;;;;;5165967;27;45371;-66
2023/12/12 10:24:29;;;;;;;0.65;0.30;;;19.50;51.80;;;;;;5158222;27;45510;-66
2023/12/12 10:26:56;;;;;;;0.50;0.40;;;19.50;51.70;;;;;;5153903;27;46378;-66
2023/12/12 10:29:23;;;;;;;1.35;0.40;;;19.50;51.70;;;;;;5158030;27;45332;-66
2023/12/12 10:31:50;;;;;;;0.63;0.43;;;19.50;51.80;;;;;;5161967;27;45589;-67
2023/12/12 10:34:18;;;;;;;1.02;0.40;;;19.50;51.90;;;;;;5147005;27;45478;-65
2023/12/12 10:36:47;;;;;;;2.10;0.52;;;19.50;51.80;;;;;;5147629;27;47303;-67
2023/12/12 10:39:14;;;;;;;0.63;0.40;;;19.50;51.70;;;;;;5161346;27;45389;-66
2023/12/12 10:41:47;;;;;;;1.52;0.40;;;19.50;51.90;;;;;;5168333;27;45494;-66
2023/12/12 10:44:14;;;;;;;0.60;0.30;;;19.50;51.90;;;;;;5155107;27;45664;-68
2023/12/12 10:46:41;;;;;;;0.57;0.40;;;19.50;51.90;;;;;;5152703;27;45709;-69
2023/12/12 10:49:08;;;;;;;0.50;0.30;;;19.50;51.90;;;;;;5157242;27;45523;-68
2023/12/12 10:51:34;;;;;;;0.40;0.40;;;19.50;51.90;;;;;;5154866;27;45363;-69
2023/12/12 10:54:01;;;;;;;0.32;0.32;;;19.50;51.90;;;;;;5157829;27;45413;-68
2023/12/12 10:56:35;;;;;;;0.40;0.40;;;19.60;52.10;;;;;;5150984;27;48293;-69
2023/12/12 10:59:03;;;;;;;0.28;0.28;;;19.60;52.00;;;;;;5154636;27;45341;-68
2023/12/12 11:01:31;;;;;;;0.73;0.40;;;19.60;52.00;;;;;;5160226;27;45817;-68
2023/12/12 11:03:58;;;;;;;0.30;0.30;;;19.60;52.10;;;;;;5155868;27;45392;-69
2023/12/12 11:06:25;;;;;;;1.42;0.40;;;19.60;52.00;;;;;;5163840;27;45461;-70
2023/12/12 11:08:52;;;;;;;0.68;0.50;;;19.60;52.20;;;;;;5151576;27;45412;-69
2023/12/12 11:11:19;;;;;;;0.40;0.40;;;19.60;52.20;;;;;;5154852;27;45370;-69
2023/12/12 11:13:46;;;;;;;0.50;0.30;;;19.60;52.00;;;;;;5153530;27;45442;-69
2023/12/12 11:16:14;;;;;;;1.20;0.50;;;19.60;52.20;;;;;;5163207;27;45581;-68
2023/12/12 11:18:42;;;;;;;0.55;0.30;;;19.60;52.20;;;;;;5154930;27;45374;-69
2023/12/12 11:21:09;;;;;;;0.63;0.38;;;19.60;52.10;;;;;;5160971;27;45324;-67
2023/12/12 11:23:53;;;;;;;1.60;0.68;;;19.60;52.30;;;;;;5157083;27;45479;-68
2023/12/12 11:26:21;;;;;;;0.47;0.47;;;19.60;52.30;;;;;;5157349;27;46480;-68
2023/12/12 11:28:48;;;;;;;0.57;0.50;;;19.60;52.30;;;;;;5154156;27;45366;-68
2023/12/12 11:31:24;;;;;;;1.55;0.47;;;19.60;52.30;;;;;;5156612;27;45504;-66
2023/12/12 11:34:05;;;;;;;0.38;0.38;;;19.60;52.30;;;;;;5153736;27;45481;-67
2023/12/12 11:36:50;;;;;;;0.38;0.30;;;19.60;52.30;;;;;;5170385;27;46779;-66
2023/12/12 11:39:29;;;;;;;0.20;0.20;;;19.60;52.60;;;;;;5169937;27;45483;-68
2023/12/12 11:41:56;;;;;;;0.43;0.32;;;19.60;52.40;;;;;;5170644;27;45422;-65
2023/12/12 11:44:23;;;;;;;1.65;0.45;;;19.60;52.50;;;;;;5170799;27;45253;-67
2023/12/12 11:46:53;;;;;;;0.60;0.50;;;19.60;52.40;;;;;;5170320;27;46421;-66
2023/12/12 11:49:24;;;;;;;1.50;0.40;;;19.60;52.60;;;;;;5170518;27;45396;-65
2023/12/12 11:51:52;;;;;;;2.38;0.35;;;19.60;52.40;;;;;;5170495;27;45311;-68
2023/12/12 11:54:21;;;;;;;0.80;0.47;;;19.60;52.60;;;;;;5170721;27;45633;-68
2023/12/12 11:56:48;;;;;;;0.57;0.25;;;19.70;52.50;;;;;;5170075;27;45300;-65
2023/12/12 11:59:21;;;;;;;1.10;0.30;;;19.70;52.40;;;;;;5170254;27;45270;-66
2023/12/12 12:01:49;;;;;;;1.38;0.40;;;19.70;52.60;;;;;;5170328;27;45426;-66
2023/12/12 12:04:17;;;;;;;1.33;0.70;;;19.70;52.60;;;;;;5170146;27;45297;-66
2023/12/12 12:06:44;;;;;;;2.20;0.60;;;19.70;52.50;;;;;;5165552;27;46320;-66
2023/12/12 12:09:11;;;;;;;1.10;1.00;;;19.70;52.60;;;;;;5158697;27;45271;-65
2023/12/12 12:11:38;;;;;;;3.22;0.38;;;19.70;52.60;;;;;;5170032;27;45255;-66
2023/12/12 12:14:05;;;;;;;0.32;0.32;;;19.70;52.50;;;;;;5162329;27;45418;-66
2023/12/12 12:16:32;;;;;;;1.73;0.57;;;19.70;52.50;;;;;;5167966;27;47721;-66
2023/12/12 12:18:58;;;;;;;1.95;0.45;;;19.80;52.40;;;;;;5152752;27;45383;-66
2023/12/12 12:21:27;;;;;;;2.55;0.50;;;19.70;52.40;;;;;;5154256;27;45262;-66
2023/12/12 12:23:54;;;;;;;1.17;0.40;;;19.80;52.60;;;;;;5169789;27;45485;-66
2023/12/12 12:26:21;;;;;;;0.30;0.25;;;19.70;52.50;;;;;;5163053;27;45497;-66
2023/12/12 12:28:48;;;;;;;0.63;0.32;;;19.80;52.50;;;;;;5154492;27;45356;-66
2023/12/12 12:31:27;;;;;;;0.47;0.43;;;19.80;52.40;;;;;;5168688;27;45356;-66
2023/12/12 12:33:54;;;;;;;1.70;0.40;;;19.80;52.30;;;;;;5168325;27;45362;-67
2023/12/12 12:36:21;;;;;;;1.30;0.77;;;19.80;52.40;;;;;;5155482;27;45436;-66
2023/12/12 12:38:49;;;;;;;0.47;0.43;;;19.80;52.40;;;;;;5161130;27;45510;-66
2023/12/12 12:41:23;;;;;;;0.88;0.32;;;19.80;52.30;;;;;;5156685;27;45259;-67
2023/12/12 12:43:52;;;;;;;1.02;0.30;;;19.80;52.50;;;;;;5163007;27;45375;-68
2023/12/12 12:46:19;;;;;;;1.05;0.40;;;19.80;52.40;;;;;;5151947;27;47351;-65
2023/12/12 12:48:46;;;;;;;1.58;0.45;;;19.80;52.50;;;;;;5148358;27;45369;-65